Salt Lake City International Airport
KSLC : rendu visible

Aérodrome :











RETROUVEZ-NOUS SUR...

 
LOGIN :

S'inscrire | Disclaimer

   EN    FR    IT 

 









Légende :    VFR   VFR Marginal   IFR   IFR Intensif   IFR Très Intensif
Visi : 
Plafond : 
>= 8 km
>= 3000ft
5 à 8 km
1000 à 3000 ft
1500m à 5 km
500 à 1000 ft
800 à 1500m
200 à 500 ft
< 800m
< 200 ft
Symboles :   Orages  Brouillard  Fortes neiges  Fortes précipitations  Vent > 20 kt






- Altitude de l'aérodrome : 4227 ft
- Code IATA : SLC


KSLC - Salt Lake City International

DERNIER METAR :
  • 190354Z 33006KT 10SM FEW130 FEW200 M01/M07 A3018 RMK AO2 SLP239 T10111067

METARs EXPIRÉS :
  • 190254Z 34009KT 10SM FEW130 SCT200 M01/M08 A3018 RMK AO2 SLP239 T10061078 53003
  • 190154Z 33008KT 10SM FEW130 SCT200 01/M08 A3017 RMK AO2 SLP233 T00061078

TAF KSLC
Valide du 19 à 03h jusqu'au 20 à 06h UTC


190250Z 1903/2006 34007KT P6SM FEW060 SCT200
FM191200 33004KT P6SM SCT200
FM191700 33007KT P6SM SCT200



MET'MAP, la Météo Aéronautique d'un coup d'oeil ! - Copyright ORBIFLY Décembre 2007 - Disclaimer

ORBIFLY MET'MAP TEAM :

Programmation & Développement : Alexandra Zaïnal
Sur une idée originale de : Baudouin d'Aumeries
Assistance à la programmation : Marc-Olivier Méhu
Soutien technique & logistique : Manuel Goepfert

Contact : metmap@orbifly.com




SOURCES & CREDITS :

   NOAA       Earth
Advisory